sensor_id;sensor_type;location;lat;lon;timestamp;pressure;altitude;pressure_sealevel;temperature;humidity
2711;BME280;20721;47.402;8.550;2023-05-02T00:00:09;96288;;;12.24;69.01
2711;BME280;20721;47.402;8.550;2023-05-02T00:02:09;96284;;;12.26;69.14
2711;BME280;20721;47.402;8.550;2023-05-02T00:03:09;96283;;;12.30;68.92
2711;BME280;20721;47.402;8.550;2023-05-02T00:04:09;96283;;;12.35;68.95
2711;BME280;20721;47.402;8.550;2023-05-02T00:05:09;96281;;;12.42;68.77
2711;BME280;20721;47.402;8.550;2023-05-02T00:06:10;96279;;;12.44;68.08
2711;BME280;20721;47.402;8.550;2023-05-02T00:07:09;96279;;;12.36;68.22
2711;BME280;20721;47.402;8.550;2023-05-02T00:08:10;96277;;;12.35;68.32
2711;BME280;20721;47.402;8.550;2023-05-02T00:09:09;96285;;;12.29;68.18
2711;BME280;20721;47.402;8.550;2023-05-02T00:10:09;96279;;;12.19;68.14
2711;BME280;20721;47.402;8.550;2023-05-02T00:12:09;96281;;;12.22;68.53
2711;BME280;20721;47.402;8.550;2023-05-02T00:13:09;96283;;;12.23;68.62
2711;BME280;20721;47.402;8.550;2023-05-02T00:14:09;96282;;;12.17;68.36
2711;BME280;20721;47.402;8.550;2023-05-02T00:15:09;96281;;;12.10;68.66
2711;BME280;20721;47.402;8.550;2023-05-02T00:16:10;96281;;;12.16;68.74
2711;BME280;20721;47.402;8.550;2023-05-02T00:17:16;96282;;;12.21;68.50
2711;BME280;20721;47.402;8.550;2023-05-02T00:18:09;96280;;;12.25;68.26
2711;BME280;20721;47.402;8.550;2023-05-02T00:19:09;96281;;;12.35;67.99
2711;BME280;20721;47.402;8.550;2023-05-02T00:21:10;96277;;;12.33;67.34
2711;BME280;20721;47.402;8.550;2023-05-02T00:22:09;96276;;;12.25;67.57
2711;BME280;20721;47.402;8.550;2023-05-02T00:23:11;96275;;;12.26;67.55
2711;BME280;20721;47.402;8.550;2023-05-02T00:24:09;96274;;;12.21;67.77
2711;BME280;20721;47.402;8.550;2023-05-02T00:25:09;96274;;;12.06;68.34
2711;BME280;20721;47.402;8.550;2023-05-02T00:26:09;96273;;;12.01;68.42
2711;BME280;20721;47.402;8.550;2023-05-02T00:27:09;96272;;;11.94;68.71
2711;BME280;20721;47.402;8.550;2023-05-02T00:28:09;96266;;;11.98;68.78
2711;BME280;20721;47.402;8.550;2023-05-02T00:29:09;96271;;;12.06;68.77
2711;BME280;20721;47.402;8.550;2023-05-02T00:30:09;96269;;;12.13;68.57
2711;BME280;20721;47.402;8.550;2023-05-02T00:31:09;96269;;;12.15;68.27
2711;BME280;20721;47.402;8.550;2023-05-02T00:32:09;96268;;;12.18;68.31
2711;BME280;20721;47.402;8.550;2023-05-02T00:33:11;96265;;;12.23;68.23
2711;BME280;20721;47.402;8.550;2023-05-02T00:34:09;96263;;;12.28;68.00
2711;BME280;20721;47.402;8.550;2023-05-02T00:35:09;96263;;;12.34;67.83
2711;BME280;20721;47.402;8.550;2023-05-02T00:36:15;96264;;;12.27;67.67
2711;BME280;20721;47.402;8.550;2023-05-02T00:37:09;96263;;;12.05;68.30
2711;BME280;20721;47.402;8.550;2023-05-02T00:38:09;96261;;;11.99;68.62
2711;BME280;20721;47.402;8.550;2023-05-02T00:39:10;96261;;;11.87;69.07
2711;BME280;20721;47.402;8.550;2023-05-02T00:40:09;96260;;;11.80;69.24
2711;BME280;20721;47.402;8.550;2023-05-02T00:42:09;96260;;;11.87;69.46
2711;BME280;20721;47.402;8.550;2023-05-02T00:43:09;96258;;;11.95;69.30
2711;BME280;20721;47.402;8.550;2023-05-02T00:44:09;96261;;;11.97;69.10
2711;BME280;20721;47.402;8.550;2023-05-02T00:45:09;96258;;;12.02;69.11
2711;BME280;20721;47.402;8.550;2023-05-02T00:46:11;96260;;;12.01;68.90
2711;BME280;20721;47.402;8.550;2023-05-02T00:47:09;96256;;;12.05;68.86
2711;BME280;20721;47.402;8.550;2023-05-02T00:48:09;96258;;;12.08;68.64
2711;BME280;20721;47.402;8.550;2023-05-02T00:49:09;96257;;;12.13;68.52
2711;BME280;20721;47.402;8.550;2023-05-02T00:50:09;96258;;;12.03;68.21
2711;BME280;20721;47.402;8.550;2023-05-02T00:51:12;96258;;;11.90;68.68
2711;BME280;20721;47.402;8.550;2023-05-02T00:52:09;96257;;;11.82;69.29
2711;BME280;20721;47.402;8.550;2023-05-02T00:53:09;96253;;;11.85;69.28
2711;BME280;20721;47.402;8.550;2023-05-02T00:54:14;96253;;;11.92;68.83
2711;BME280;20721;47.402;8.550;2023-05-02T00:55:09;96254;;;11.90;68.69
2711;BME280;20721;47.402;8.550;2023-05-02T00:56:09;96255;;;11.96;68.46
2711;BME280;20721;47.402;8.550;2023-05-02T00:57:09;96250;;;11.99;68.52
2711;BME280;20721;47.402;8.550;2023-05-02T00:58:11;96250;;;12.05;68.30
2711;BME280;20721;47.402;8.550;2023-05-02T00:59:10;96253;;;12.07;68.14
2711;BME280;20721;47.402;8.550;2023-05-02T01:00:10;96253;;;12.04;67.53
2711;BME280;20721;47.402;8.550;2023-05-02T01:03:16;96250;;;12.13;67.64
2711;BME280;20721;47.402;8.550;2023-05-02T01:08:12;96258;;;12.04;67.45
2711;BME280;20721;47.402;8.550;2023-05-02T01:11:15;96259;;;11.95;67.72
2711;BME280;20721;47.402;8.550;2023-05-02T01:13:11;96262;;;11.79;68.25
2711;BME280;20721;47.402;8.550;2023-05-02T01:14:09;96262;;;11.83;68.05
2711;BME280;20721;47.402;8.550;2023-05-02T01:15:11;96262;;;11.90;67.92
2711;BME280;20721;47.402;8.550;2023-05-02T01:16:10;96264;;;11.95;68.00
2711;BME280;20721;47.402;8.550;2023-05-02T01:17:10;96262;;;12.01;67.92
2711;BME280;20721;47.402;8.550;2023-05-02T01:18:11;96260;;;12.07;67.75
2711;BME280;20721;47.402;8.550;2023-05-02T01:19:11;96262;;;12.16;67.62
2711;BME280;20721;47.402;8.550;2023-05-02T01:20:12;96263;;;12.25;67.32
2711;BME280;20721;47.402;8.550;2023-05-02T01:21:10;96260;;;12.27;67.10
2711;BME280;20721;47.402;8.550;2023-05-02T01:22:10;96263;;;12.33;67.08
2711;BME280;20721;47.402;8.550;2023-05-02T01:23:16;96265;;;12.39;66.65
2711;BME280;20721;47.402;8.550;2023-05-02T01:24:11;96265;;;12.46;66.29
2711;BME280;20721;47.402;8.550;2023-05-02T01:27:14;96268;;;12.61;66.03
2711;BME280;20721;47.402;8.550;2023-05-02T01:29:10;96271;;;12.64;66.01
2711;BME280;20721;47.402;8.550;2023-05-02T01:30:10;96271;;;12.65;65.95
2711;BME280;20721;47.402;8.550;2023-05-02T01:31:15;96275;;;12.66;65.95
2711;BME280;20721;47.402;8.550;2023-05-02T01:32:09;96273;;;12.68;65.72
2711;BME280;20721;47.402;8.550;2023-05-02T01:33:10;96276;;;12.67;65.74
2711;BME280;20721;47.402;8.550;2023-05-02T01:34:09;96278;;;12.65;65.97
2711;BME280;20721;47.402;8.550;2023-05-02T01:35:09;96279;;;12.64;66.01
2711;BME280;20721;47.402;8.550;2023-05-02T01:36:09;96280;;;12.63;66.08
2711;BME280;20721;47.402;8.550;2023-05-02T01:37:10;96277;;;12.65;65.93
2711;BME280;20721;47.402;8.550;2023-05-02T01:38:12;96274;;;12.64;65.81
2711;BME280;20721;47.402;8.550;2023-05-02T01:39:10;96275;;;12.65;65.92
2711;BME280;20721;47.402;8.550;2023-05-02T01:40:10;96275;;;12.66;65.85
2711;BME280;20721;47.402;8.550;2023-05-02T01:42:10;96276;;;12.67;65.56
2711;BME280;20721;47.402;8.550;2023-05-02T01:43:10;96280;;;12.68;65.60
2711;BME280;20721;47.402;8.550;2023-05-02T01:45:10;96277;;;12.71;65.54
2711;BME280;20721;47.402;8.550;2023-05-02T01:47:10;96275;;;12.70;65.45
2711;BME280;20721;47.402;8.550;2023-05-02T01:49:09;96275;;;12.71;65.54
2711;BME280;20721;47.402;8.550;2023-05-02T01:50:10;96274;;;12.69;65.52
2711;BME280;20721;47.402;8.550;2023-05-02T01:51:10;96277;;;12.65;65.54
2711;BME280;20721;47.402;8.550;2023-05-02T01:54:09;96271;;;12.66;65.42
2711;BME280;20721;47.402;8.550;2023-05-02T01:56:09;96277;;;12.67;65.13
2711;BME280;20721;47.402;8.550;2023-05-02T01:57:09;96276;;;12.68;65.16
2711;BME280;20721;47.402;8.550;2023-05-02T01:58:09;96277;;;12.69;65.20
2711;BME280;20721;47.402;8.550;2023-05-02T02:01:09;96274;;;12.70;64.84
2711;BME280;20721;47.402;8.550;2023-05-02T02:02:09;96274;;;12.67;65.04
2711;BME280;20721;47.402;8.550;2023-05-02T02:04:10;96274;;;12.68;64.89
2711;BME280;20721;47.402;8.550;2023-05-02T02:06:10;96271;;;12.52;64.44
2711;BME280;20721;47.402;8.550;2023-05-02T02:07:11;96277;;;12.39;64.87
2711;BME280;20721;47.402;8.550;2023-05-02T02:08:14;96276;;;12.35;65.28
2711;BME280;20721;47.402;8.550;2023-05-02T02:10:09;96281;;;12.36;65.18
2711;BME280;20721;47.402;8.550;2023-05-02T02:11:10;96279;;;12.39;65.36
2711;BME280;20721;47.402;8.550;2023-05-02T02:12:11;96277;;;12.40;65.18
2711;BME280;20721;47.402;8.550;2023-05-02T02:13:17;96281;;;12.38;65.11
2711;BME280;20721;47.402;8.550;2023-05-02T02:15:18;96284;;;12.39;65.16
2711;BME280;20721;47.402;8.550;2023-05-02T02:16:10;96284;;;12.41;65.16
2711;BME280;20721;47.402;8.550;2023-05-02T02:17:12;96285;;;12.44;65.29
2711;BME280;20721;47.402;8.550;2023-05-02T02:18:12;96286;;;12.47;65.22
2711;BME280;20721;47.402;8.550;2023-05-02T02:19:10;96290;;;12.46;64.75
2711;BME280;20721;47.402;8.550;2023-05-02T02:20:10;96293;;;12.45;64.84
2711;BME280;20721;47.402;8.550;2023-05-02T02:21:10;96296;;;12.44;64.90
2711;BME280;20721;47.402;8.550;2023-05-02T02:22:10;96294;;;12.42;65.19
2711;BME280;20721;47.402;8.550;2023-05-02T02:23:09;96295;;;12.44;65.32
2711;BME280;20721;47.402;8.550;2023-05-02T02:24:09;96295;;;12.47;65.50
2711;BME280;20721;47.402;8.550;2023-05-02T02:25:10;96295;;;12.50;65.66
2711;BME280;20721;47.402;8.550;2023-05-02T02:26:09;96291;;;12.52;65.77
2711;BME280;20721;47.402;8.550;2023-05-02T02:27:10;96295;;;12.54;65.70
2711;BME280;20721;47.402;8.550;2023-05-02T02:28:09;96294;;;12.55;65.52
2711;BME280;20721;47.402;8.550;2023-05-02T02:29:10;96297;;;12.56;65.44
2711;BME280;20721;47.402;8.550;2023-05-02T02:30:10;96298;;;12.57;65.55
2711;BME280;20721;47.402;8.550;2023-05-02T02:31:09;96294;;;12.56;65.38
2711;BME280;20721;47.402;8.550;2023-05-02T02:32:09;96299;;;12.57;65.41
2711;BME280;20721;47.402;8.550;2023-05-02T02:33:09;96298;;;12.58;65.38
2711;BME280;20721;47.402;8.550;2023-05-02T02:35:09;96299;;;12.59;65.23
2711;BME280;20721;47.402;8.550;2023-05-02T02:37:18;96298;;;12.56;65.51
2711;BME280;20721;47.402;8.550;2023-05-02T02:39:19;96303;;;12.55;65.73
2711;BME280;20721;47.402;8.550;2023-05-02T02:41:11;96301;;;12.58;65.61
2711;BME280;20721;47.402;8.550;2023-05-02T02:42:13;96304;;;12.61;65.81
2711;BME280;20721;47.402;8.550;2023-05-02T02:43:11;96300;;;12.62;65.86
2711;BME280;20721;47.402;8.550;2023-05-02T02:44:18;96304;;;12.64;65.50
2711;BME280;20721;47.402;8.550;2023-05-02T02:45:18;96305;;;12.66;65.59
2711;BME280;20721;47.402;8.550;2023-05-02T02:47:15;96305;;;12.69;65.38
2711;BME280;20721;47.402;8.550;2023-05-02T02:52:17;96304;;;12.74;65.38
2711;BME280;20721;47.402;8.550;2023-05-02T02:56:14;96303;;;12.73;65.12
2711;BME280;20721;47.402;8.550;2023-05-02T02:57:13;96305;;;12.71;65.03
2711;BME280;20721;47.402;8.550;2023-05-02T03:00:12;96307;;;12.68;65.05
2711;BME280;20721;47.402;8.550;2023-05-02T03:01:10;96307;;;12.69;64.97
2711;BME280;20721;47.402;8.550;2023-05-02T03:02:11;96307;;;12.70;64.98
2711;BME280;20721;47.402;8.550;2023-05-02T03:03:10;96308;;;12.69;64.87
2711;BME280;20721;47.402;8.550;2023-05-02T03:04:10;96308;;;12.66;64.97
2711;BME280;20721;47.402;8.550;2023-05-02T03:06:10;96310;;;12.67;65.22
2711;BME280;20721;47.402;8.550;2023-05-02T03:08:10;96313;;;12.69;65.42
2711;BME280;20721;47.402;8.550;2023-05-02T03:09:13;96317;;;12.72;65.32
2711;BME280;20721;47.402;8.550;2023-05-02T03:10:10;96316;;;12.74;65.17
2711;BME280;20721;47.402;8.550;2023-05-02T03:11:10;96318;;;12.76;65.05
2711;BME280;20721;47.402;8.550;2023-05-02T03:12:10;96315;;;12.78;65.10
2711;BME280;20721;47.402;8.550;2023-05-02T03:14:10;96321;;;12.76;65.24
2711;BME280;20721;47.402;8.550;2023-05-02T03:15:21;96320;;;12.75;65.35
2711;BME280;20721;47.402;8.550;2023-05-02T03:17:10;96320;;;12.76;65.26
2711;BME280;20721;47.402;8.550;2023-05-02T03:18:10;96322;;;12.77;65.25
2711;BME280;20721;47.402;8.550;2023-05-02T03:19:10;96321;;;12.75;65.43
2711;BME280;20721;47.402;8.550;2023-05-02T03:20:09;96318;;;12.73;65.62
2711;BME280;20721;47.402;8.550;2023-05-02T03:22:15;96319;;;12.70;65.52
2711;BME280;20721;47.402;8.550;2023-05-02T03:23:10;96318;;;12.64;65.63
2711;BME280;20721;47.402;8.550;2023-05-02T03:24:10;96323;;;12.57;65.37
2711;BME280;20721;47.402;8.550;2023-05-02T03:25:10;96321;;;12.48;65.61
2711;BME280;20721;47.402;8.550;2023-05-02T03:26:10;96325;;;12.42;65.79
2711;BME280;20721;47.402;8.550;2023-05-02T03:27:10;96327;;;12.39;65.61
2711;BME280;20721;47.402;8.550;2023-05-02T03:29:10;96325;;;12.35;65.80
2711;BME280;20721;47.402;8.550;2023-05-02T03:30:10;96326;;;12.38;65.64
2711;BME280;20721;47.402;8.550;2023-05-02T03:31:09;96329;;;12.31;65.76
2711;BME280;20721;47.402;8.550;2023-05-02T03:32:10;96330;;;12.28;66.14
2711;BME280;20721;47.402;8.550;2023-05-02T03:33:10;96329;;;12.29;66.42
2711;BME280;20721;47.402;8.550;2023-05-02T03:34:10;96331;;;12.33;66.21
2711;BME280;20721;47.402;8.550;2023-05-02T03:35:10;96328;;;12.38;66.07
2711;BME280;20721;47.402;8.550;2023-05-02T03:36:10;96330;;;12.41;66.07
2711;BME280;20721;47.402;8.550;2023-05-02T03:37:10;96332;;;12.43;66.20
2711;BME280;20721;47.402;8.550;2023-05-02T03:38:10;96334;;;12.48;66.09
2711;BME280;20721;47.402;8.550;2023-05-02T03:40:10;96332;;;12.49;66.19
2711;BME280;20721;47.402;8.550;2023-05-02T03:41:10;96331;;;12.48;66.35
2711;BME280;20721;47.402;8.550;2023-05-02T03:43:10;96338;;;12.49;66.10
2711;BME280;20721;47.402;8.550;2023-05-02T03:44:10;96337;;;12.50;66.03
2711;BME280;20721;47.402;8.550;2023-05-02T03:45:10;96338;;;12.52;65.92
2711;BME280;20721;47.402;8.550;2023-05-02T03:47:10;96339;;;12.55;66.12
2711;BME280;20721;47.402;8.550;2023-05-02T03:48:10;96343;;;12.59;65.79
2711;BME280;20721;47.402;8.550;2023-05-02T03:49:10;96337;;;12.58;65.57
2711;BME280;20721;47.402;8.550;2023-05-02T03:50:10;96341;;;12.54;65.69
2711;BME280;20721;47.402;8.550;2023-05-02T03:51:10;96336;;;12.47;65.87
2711;BME280;20721;47.402;8.550;2023-05-02T03:52:10;96340;;;12.44;66.00
2711;BME280;20721;47.402;8.550;2023-05-02T03:53:10;96337;;;12.42;66.03
2711;BME280;20721;47.402;8.550;2023-05-02T03:54:10;96337;;;12.41;66.11
2711;BME280;20721;47.402;8.550;2023-05-02T03:55:10;96341;;;12.38;66.17
2711;BME280;20721;47.402;8.550;2023-05-02T03:56:10;96338;;;12.37;66.34
2711;BME280;20721;47.402;8.550;2023-05-02T03:57:11;96337;;;12.36;66.47
2711;BME280;20721;47.402;8.550;2023-05-02T03:58:10;96342;;;12.37;66.28
2711;BME280;20721;47.402;8.550;2023-05-02T03:59:15;96342;;;12.38;66.20
2711;BME280;20721;47.402;8.550;2023-05-02T04:00:10;96342;;;12.40;66.30
2711;BME280;20721;47.402;8.550;2023-05-02T04:01:13;96340;;;12.39;66.17
2711;BME280;20721;47.402;8.550;2023-05-02T04:02:10;96346;;;12.40;66.37
2711;BME280;20721;47.402;8.550;2023-05-02T04:03:10;96343;;;12.43;66.26
2711;BME280;20721;47.402;8.550;2023-05-02T04:04:10;96346;;;12.47;66.18
2711;BME280;20721;47.402;8.550;2023-05-02T04:05:10;96346;;;12.51;66.17
2711;BME280;20721;47.402;8.550;2023-05-02T04:06:11;96350;;;12.54;66.14
2711;BME280;20721;47.402;8.550;2023-05-02T04:07:16;96349;;;12.57;66.16
2711;BME280;20721;47.402;8.550;2023-05-02T04:08:10;96350;;;12.62;66.14
2711;BME280;20721;47.402;8.550;2023-05-02T04:09:10;96350;;;12.65;66.15
2711;BME280;20721;47.402;8.550;2023-05-02T04:10:15;96351;;;12.67;66.06
2711;BME280;20721;47.402;8.550;2023-05-02T04:11:10;96356;;;12.69;65.94
2711;BME280;20721;47.402;8.550;2023-05-02T04:12:10;96354;;;12.71;65.51
2711;BME280;20721;47.402;8.550;2023-05-02T04:13:10;96354;;;12.68;65.58
2711;BME280;20721;47.402;8.550;2023-05-02T04:14:10;96351;;;12.67;65.68
2711;BME280;20721;47.402;8.550;2023-05-02T04:15:10;96356;;;12.65;65.72
2711;BME280;20721;47.402;8.550;2023-05-02T04:16:10;96355;;;12.63;65.74
2711;BME280;20721;47.402;8.550;2023-05-02T04:19:12;96359;;;12.62;66.33
2711;BME280;20721;47.402;8.550;2023-05-02T04:20:10;96361;;;12.64;66.23
2711;BME280;20721;47.402;8.550;2023-05-02T04:21:10;96363;;;12.68;66.19
2711;BME280;20721;47.402;8.550;2023-05-02T04:22:10;96365;;;12.69;66.09
2711;BME280;20721;47.402;8.550;2023-05-02T04:23:10;96365;;;12.71;66.06
2711;BME280;20721;47.402;8.550;2023-05-02T04:25:10;96366;;;12.72;65.69
2711;BME280;20721;47.402;8.550;2023-05-02T04:28:10;96373;;;12.74;65.84
2711;BME280;20721;47.402;8.550;2023-05-02T04:29:10;96369;;;12.75;65.82
2711;BME280;20721;47.402;8.550;2023-05-02T04:30:10;96372;;;12.77;65.92
2711;BME280;20721;47.402;8.550;2023-05-02T04:32:10;96373;;;12.79;65.77
2711;BME280;20721;47.402;8.550;2023-05-02T04:34:10;96368;;;12.78;65.44
2711;BME280;20721;47.402;8.550;2023-05-02T04:35:10;96368;;;12.77;65.46
2711;BME280;20721;47.402;8.550;2023-05-02T04:36:15;96374;;;12.75;65.36
2711;BME280;20721;47.402;8.550;2023-05-02T04:37:10;96374;;;12.70;65.44
2711;BME280;20721;47.402;8.550;2023-05-02T04:38:10;96373;;;12.64;65.64
2711;BME280;20721;47.402;8.550;2023-05-02T04:39:10;96375;;;12.60;65.79
2711;BME280;20721;47.402;8.550;2023-05-02T04:40:10;96376;;;12.62;65.94
2711;BME280;20721;47.402;8.550;2023-05-02T04:42:10;96376;;;12.63;66.06
2711;BME280;20721;47.402;8.550;2023-05-02T04:43:10;96375;;;12.65;65.99
2711;BME280;20721;47.402;8.550;2023-05-02T04:44:10;96379;;;12.69;65.71
2711;BME280;20721;47.402;8.550;2023-05-02T04:45:11;96376;;;12.68;65.25
2711;BME280;20721;47.402;8.550;2023-05-02T04:46:10;96376;;;12.58;65.52
2711;BME280;20721;47.402;8.550;2023-05-02T04:47:10;96376;;;12.50;65.87
2711;BME280;20721;47.402;8.550;2023-05-02T04:48:10;96379;;;12.40;66.03
2711;BME280;20721;47.402;8.550;2023-05-02T04:49:10;96379;;;12.39;66.35
2711;BME280;20721;47.402;8.550;2023-05-02T04:50:10;96383;;;12.38;66.16
2711;BME280;20721;47.402;8.550;2023-05-02T04:51:10;96382;;;12.39;66.27
2711;BME280;20721;47.402;8.550;2023-05-02T04:52:10;96375;;;12.41;66.38
2711;BME280;20721;47.402;8.550;2023-05-02T04:54:11;96375;;;12.46;66.68
2711;BME280;20721;47.402;8.550;2023-05-02T04:55:10;96382;;;12.49;66.33
2711;BME280;20721;47.402;8.550;2023-05-02T04:56:10;96379;;;12.52;66.26
2711;BME280;20721;47.402;8.550;2023-05-02T04:58:10;96380;;;12.46;66.18
2711;BME280;20721;47.402;8.550;2023-05-02T04:59:10;96380;;;12.40;66.26
2711;BME280;20721;47.402;8.550;2023-05-02T05:00:10;96380;;;12.43;66.29
2711;BME280;20721;47.402;8.550;2023-05-02T05:01:10;96383;;;12.46;66.11
2711;BME280;20721;47.402;8.550;2023-05-02T05:02:11;96377;;;12.47;66.04
2711;BME280;20721;47.402;8.550;2023-05-02T05:03:10;96379;;;12.48;65.83
2711;BME280;20721;47.402;8.550;2023-05-02T05:05:10;96388;;;12.50;66.10
2711;BME280;20721;47.402;8.550;2023-05-02T05:06:11;96390;;;12.55;65.77
2711;BME280;20721;47.402;8.550;2023-05-02T05:07:10;96394;;;12.57;65.67
2711;BME280;20721;47.402;8.550;2023-05-02T05:08:10;96402;;;12.59;65.88
2711;BME280;20721;47.402;8.550;2023-05-02T05:09:10;96403;;;12.63;65.98
2711;BME280;20721;47.402;8.550;2023-05-02T05:10:10;96406;;;12.66;66.07
2711;BME280;20721;47.402;8.550;2023-05-02T05:11:10;96409;;;12.69;66.07
2711;BME280;20721;47.402;8.550;2023-05-02T05:12:10;96411;;;12.72;66.07
2711;BME280;20721;47.402;8.550;2023-05-02T05:13:15;96417;;;12.76;66.03
2711;BME280;20721;47.402;8.550;2023-05-02T05:14:10;96421;;;12.81;66.08
2711;BME280;20721;47.402;8.550;2023-05-02T05:15:10;96420;;;12.85;66.04
2711;BME280;20721;47.402;8.550;2023-05-02T05:16:10;96424;;;12.90;65.96
2711;BME280;20721;47.402;8.550;2023-05-02T05:17:10;96428;;;12.94;65.93
2711;BME280;20721;47.402;8.550;2023-05-02T05:18:10;96429;;;12.97;65.88
2711;BME280;20721;47.402;8.550;2023-05-02T05:19:10;96429;;;13.00;65.84
2711;BME280;20721;47.402;8.550;2023-05-02T05:20:10;96429;;;13.02;65.88
2711;BME280;20721;47.402;8.550;2023-05-02T05:21:10;96432;;;13.04;65.82
2711;BME280;20721;47.402;8.550;2023-05-02T05:22:10;96431;;;13.06;65.66
2711;BME280;20721;47.402;8.550;2023-05-02T05:23:10;96433;;;13.08;65.85
2711;BME280;20721;47.402;8.550;2023-05-02T05:24:10;96435;;;13.10;66.03
2711;BME280;20721;47.402;8.550;2023-05-02T05:25:10;96437;;;13.12;65.75
2711;BME280;20721;47.402;8.550;2023-05-02T05:26:10;96440;;;13.13;65.62
2711;BME280;20721;47.402;8.550;2023-05-02T05:27:10;96440;;;13.15;65.44
2711;BME280;20721;47.402;8.550;2023-05-02T05:28:10;96444;;;13.18;65.38
2711;BME280;20721;47.402;8.550;2023-05-02T05:29:10;96442;;;13.19;65.41
2711;BME280;20721;47.402;8.550;2023-05-02T05:31:11;96448;;;13.20;65.65
2711;BME280;20721;47.402;8.550;2023-05-02T05:32:10;96454;;;13.22;65.66
2711;BME280;20721;47.402;8.550;2023-05-02T05:33:10;96457;;;13.24;65.46
2711;BME280;20721;47.402;8.550;2023-05-02T05:34:10;96459;;;13.26;65.38
2711;BME280;20721;47.402;8.550;2023-05-02T05:35:10;96463;;;13.27;65.42
2711;BME280;20721;47.402;8.550;2023-05-02T05:36:12;96463;;;13.28;65.32
2711;BME280;20721;47.402;8.550;2023-05-02T05:37:10;96466;;;13.31;65.30
2711;BME280;20721;47.402;8.550;2023-05-02T05:38:10;96465;;;13.32;65.25
2711;BME280;20721;47.402;8.550;2023-05-02T05:39:10;96468;;;13.34;65.04
2711;BME280;20721;47.402;8.550;2023-05-02T05:40:10;96468;;;13.37;64.94
2711;BME280;20721;47.402;8.550;2023-05-02T05:42:11;96474;;;13.38;65.14
2711;BME280;20721;47.402;8.550;2023-05-02T05:43:10;96477;;;13.39;65.02
2711;BME280;20721;47.402;8.550;2023-05-02T05:45:11;96478;;;13.40;64.88
2711;BME280;20721;47.402;8.550;2023-05-02T05:46:10;96479;;;13.41;64.71
2711;BME280;20721;47.402;8.550;2023-05-02T05:48:10;96482;;;13.42;64.86
2711;BME280;20721;47.402;8.550;2023-05-02T05:49:11;96480;;;13.41;64.77
2711;BME280;20721;47.402;8.550;2023-05-02T05:50:10;96482;;;13.42;64.65
2711;BME280;20721;47.402;8.550;2023-05-02T05:52:10;96482;;;13.43;64.58
2711;BME280;20721;47.402;8.550;2023-05-02T05:53:10;96485;;;13.44;64.30
2711;BME280;20721;47.402;8.550;2023-05-02T05:55:10;96482;;;13.42;64.37
2711;BME280;20721;47.402;8.550;2023-05-02T05:58:10;96484;;;13.44;64.46
2711;BME280;20721;47.402;8.550;2023-05-02T06:00:10;96482;;;13.45;64.34
2711;BME280;20721;47.402;8.550;2023-05-02T06:01:10;96484;;;13.44;64.44
2711;BME280;20721;47.402;8.550;2023-05-02T06:02:10;96483;;;13.46;64.31
2711;BME280;20721;47.402;8.550;2023-05-02T06:03:11;96484;;;13.47;64.33
2711;BME280;20721;47.402;8.550;2023-05-02T06:04:10;96482;;;13.48;64.43
2711;BME280;20721;47.402;8.550;2023-05-02T06:05:10;96484;;;13.49;64.33
2711;BME280;20721;47.402;8.550;2023-05-02T06:07:10;96485;;;13.50;64.09
2711;BME280;20721;47.402;8.550;2023-05-02T06:08:10;96482;;;13.51;64.21
2711;BME280;20721;47.402;8.550;2023-05-02T06:11:10;96484;;;13.53;64.05
2711;BME280;20721;47.402;8.550;2023-05-02T06:12:10;96486;;;13.56;64.13
2711;BME280;20721;47.402;8.550;2023-05-02T06:13:10;96486;;;13.58;64.08
2711;BME280;20721;47.402;8.550;2023-05-02T06:14:10;96483;;;13.60;64.19
2711;BME280;20721;47.402;8.550;2023-05-02T06:15:10;96485;;;13.64;63.82
2711;BME280;20721;47.402;8.550;2023-05-02T06:16:10;96485;;;13.67;63.66
2711;BME280;20721;47.402;8.550;2023-05-02T06:17:10;96488;;;13.69;63.56
2711;BME280;20721;47.402;8.550;2023-05-02T06:18:10;96488;;;13.68;63.48
2711;BME280;20721;47.402;8.550;2023-05-02T06:19:10;96491;;;13.70;63.14
2711;BME280;20721;47.402;8.550;2023-05-02T06:20:10;96491;;;13.71;62.82
2711;BME280;20721;47.402;8.550;2023-05-02T06:21:10;96493;;;13.73;62.96
2711;BME280;20721;47.402;8.550;2023-05-02T06:22:11;96499;;;13.72;62.84
2711;BME280;20721;47.402;8.550;2023-05-02T06:24:11;96498;;;13.73;62.89
2711;BME280;20721;47.402;8.550;2023-05-02T06:25:10;96500;;;13.74;62.77
2711;BME280;20721;47.402;8.550;2023-05-02T06:26:10;96500;;;13.75;63.07
2711;BME280;20721;47.402;8.550;2023-05-02T06:27:10;96506;;;13.76;62.87
2711;BME280;20721;47.402;8.550;2023-05-02T06:29:10;96502;;;13.79;62.72
2711;BME280;20721;47.402;8.550;2023-05-02T06:30:10;96503;;;13.81;62.76
2711;BME280;20721;47.402;8.550;2023-05-02T06:31:10;96503;;;13.82;62.20
2711;BME280;20721;47.402;8.550;2023-05-02T06:32:10;96504;;;13.83;62.62
2711;BME280;20721;47.402;8.550;2023-05-02T06:33:11;96508;;;13.82;62.46
2711;BME280;20721;47.402;8.550;2023-05-02T06:35:11;96507;;;13.84;61.84
2711;BME280;20721;47.402;8.550;2023-05-02T06:37:10;96505;;;13.83;61.80
2711;BME280;20721;47.402;8.550;2023-05-02T06:38:10;96504;;;13.80;62.00
2711;BME280;20721;47.402;8.550;2023-05-02T06:39:10;96506;;;13.76;62.07
2711;BME280;20721;47.402;8.550;2023-05-02T06:40:10;96506;;;13.74;62.36
2711;BME280;20721;47.402;8.550;2023-05-02T06:41:12;96506;;;13.73;62.32
2711;BME280;20721;47.402;8.550;2023-05-02T06:42:10;96504;;;13.76;62.06
2711;BME280;20721;47.402;8.550;2023-05-02T06:43:10;96506;;;13.78;61.69
2711;BME280;20721;47.402;8.550;2023-05-02T06:44:10;96507;;;13.73;61.38
2711;BME280;20721;47.402;8.550;2023-05-02T06:45:10;96509;;;13.70;61.26
2711;BME280;20721;47.402;8.550;2023-05-02T06:46:10;96511;;;13.72;61.57
2711;BME280;20721;47.402;8.550;2023-05-02T06:48:10;96513;;;13.71;61.44
2711;BME280;20721;47.402;8.550;2023-05-02T06:49:10;96516;;;13.75;61.55
2711;BME280;20721;47.402;8.550;2023-05-02T06:50:10;96511;;;13.80;61.36
2711;BME280;20721;47.402;8.550;2023-05-02T06:51:13;96513;;;13.81;61.19
2711;BME280;20721;47.402;8.550;2023-05-02T06:52:10;96515;;;13.74;60.77
2711;BME280;20721;47.402;8.550;2023-05-02T06:53:10;96515;;;13.75;61.30
2711;BME280;20721;47.402;8.550;2023-05-02T06:54:10;96514;;;13.71;61.07
2711;BME280;20721;47.402;8.550;2023-05-02T06:55:10;96512;;;13.63;61.35